sensor_id;sensor_type;location;lat;lon;timestamp;pressure;altitude;pressure_sealevel;temperature;humidity
80988;BME280;70452;39.386;-3.210;2024-01-16T00:00:34;94080.03;;;10.68;100.00
80988;BME280;70452;39.386;-3.210;2024-01-16T00:03:04;94079.84;;;10.60;100.00
80988;BME280;70452;39.386;-3.210;2024-01-16T00:05:35;94070.81;;;10.64;100.00
80988;BME280;70452;39.386;-3.210;2024-01-16T00:08:22;94067.22;;;10.69;100.00
80988;BME280;70452;39.386;-3.210;2024-01-16T00:11:01;94055.69;;;10.77;100.00
80988;BME280;70452;39.386;-3.210;2024-01-16T00:13:31;94061.91;;;10.83;100.00
80988;BME280;70452;39.386;-3.210;2024-01-16T00:16:11;94055.16;;;10.75;100.00
80988;BME280;70452;39.386;-3.210;2024-01-16T00:18:44;94055.16;;;10.75;100.00
80988;BME280;70452;39.386;-3.210;2024-01-16T00:21:13;94059.09;;;10.64;100.00
80988;BME280;70452;39.386;-3.210;2024-01-16T00:24:00;94060.66;;;10.70;100.00
80988;BME280;70452;39.386;-3.210;2024-01-16T00:26:32;94071.09;;;10.63;100.00
80988;BME280;70452;39.386;-3.210;2024-01-16T00:29:06;94068.09;;;10.64;100.00
80988;BME280;70452;39.386;-3.210;2024-01-16T00:31:57;94062.31;;;10.71;100.00
80988;BME280;70452;39.386;-3.210;2024-01-16T00:34:34;94068.84;;;10.70;100.00
80988;BME280;70452;39.386;-3.210;2024-01-16T00:37:14;94060.91;;;10.74;100.00
80988;BME280;70452;39.386;-3.210;2024-01-16T00:39:43;94059.00;;;10.74;100.00
80988;BME280;70452;39.386;-3.210;2024-01-16T00:42:12;94058.66;;;10.81;100.00
80988;BME280;70452;39.386;-3.210;2024-01-16T00:45:05;94054.03;;;10.81;100.00
80988;BME280;70452;39.386;-3.210;2024-01-16T00:47:56;94049.84;;;10.89;100.00
80988;BME280;70452;39.386;-3.210;2024-01-16T00:50:44;94051.81;;;10.83;100.00
80988;BME280;70452;39.386;-3.210;2024-01-16T00:53:19;94040.63;;;10.85;100.00
80988;BME280;70452;39.386;-3.210;2024-01-16T00:55:58;94044.69;;;10.87;100.00
80988;BME280;70452;39.386;-3.210;2024-01-16T00:58:53;94039.75;;;10.89;100.00
80988;BME280;70452;39.386;-3.210;2024-01-16T01:01:27;94039.19;;;10.93;100.00
80988;BME280;70452;39.386;-3.210;2024-01-16T01:03:59;94039.69;;;10.95;100.00
80988;BME280;70452;39.386;-3.210;2024-01-16T01:06:30;94034.75;;;10.97;100.00
80988;BME280;70452;39.386;-3.210;2024-01-16T01:09:07;94033.16;;;10.96;100.00
80988;BME280;70452;39.386;-3.210;2024-01-16T01:11:44;94035.31;;;10.99;100.00
80988;BME280;70452;39.386;-3.210;2024-01-16T01:14:13;94032.63;;;10.94;100.00
80988;BME280;70452;39.386;-3.210;2024-01-16T01:16:53;94028.00;;;10.94;100.00
80988;BME280;70452;39.386;-3.210;2024-01-16T01:19:52;94024.91;;;11.01;100.00
80988;BME280;70452;39.386;-3.210;2024-01-16T01:22:40;94016.56;;;10.92;100.00
80988;BME280;70452;39.386;-3.210;2024-01-16T01:25:10;94032.03;;;10.97;100.00
80988;BME280;70452;39.386;-3.210;2024-01-16T01:28:03;94024.41;;;10.99;100.00
80988;BME280;70452;39.386;-3.210;2024-01-16T01:30:34;94020.63;;;10.95;100.00
80988;BME280;70452;39.386;-3.210;2024-01-16T01:36:24;94019.22;;;10.97;100.00
80988;BME280;70452;39.386;-3.210;2024-01-16T01:38:56;94011.41;;;10.91;100.00
80988;BME280;70452;39.386;-3.210;2024-01-16T01:41:25;94018.06;;;10.79;100.00
80988;BME280;70452;39.386;-3.210;2024-01-16T01:43:54;94011.91;;;10.68;100.00
80988;BME280;70452;39.386;-3.210;2024-01-16T01:46:33;94026.38;;;10.64;100.00
80988;BME280;70452;39.386;-3.210;2024-01-16T01:49:21;94033.94;;;10.72;100.00
80988;BME280;70452;39.386;-3.210;2024-01-16T01:51:53;94038.13;;;10.64;100.00
80988;BME280;70452;39.386;-3.210;2024-01-16T01:57:22;94037.38;;;10.83;100.00
80988;BME280;70452;39.386;-3.210;2024-01-16T01:59:57;94047.75;;;10.81;100.00
80988;BME280;70452;39.386;-3.210;2024-01-16T02:02:39;94046.38;;;10.83;100.00
80988;BME280;70452;39.386;-3.210;2024-01-16T02:05:15;94042.19;;;10.91;100.00
80988;BME280;70452;39.386;-3.210;2024-01-16T02:07:55;94049.00;;;10.94;100.00
80988;BME280;70452;39.386;-3.210;2024-01-16T02:10:31;94054.78;;;10.87;100.00
80988;BME280;70452;39.386;-3.210;2024-01-16T02:13:02;94054.50;;;10.88;100.00
80988;BME280;70452;39.386;-3.210;2024-01-16T02:15:39;94061.50;;;10.95;100.00
80988;BME280;70452;39.386;-3.210;2024-01-16T02:18:13;94054.97;;;10.96;100.00
80988;BME280;70452;39.386;-3.210;2024-01-16T02:20:43;94052.28;;;10.91;100.00
80988;BME280;70452;39.386;-3.210;2024-01-16T02:23:15;94048.09;;;10.98;100.00
80988;BME280;70452;39.386;-3.210;2024-01-16T02:25:55;94044.13;;;10.91;100.00
80988;BME280;70452;39.386;-3.210;2024-01-16T02:28:23;94053.38;;;10.89;100.00
80988;BME280;70452;39.386;-3.210;2024-01-16T02:30:49;94062.41;;;10.90;100.00
80988;BME280;70452;39.386;-3.210;2024-01-16T02:33:24;94063.78;;;10.87;100.00
80988;BME280;70452;39.386;-3.210;2024-01-16T02:35:56;94061.03;;;10.87;100.00
80988;BME280;70452;39.386;-3.210;2024-01-16T02:38:39;94056.94;;;10.90;100.00
80988;BME280;70452;39.386;-3.210;2024-01-16T02:41:29;94050.38;;;10.91;100.00
80988;BME280;70452;39.386;-3.210;2024-01-16T02:44:03;94042.44;;;10.95;100.00
80988;BME280;70452;39.386;-3.210;2024-01-16T02:46:41;94046.28;;;10.94;100.00
80988;BME280;70452;39.386;-3.210;2024-01-16T02:49:48;94046.78;;;10.96;100.00
80988;BME280;70452;39.386;-3.210;2024-01-16T02:52:20;94054.84;;;10.82;100.00
80988;BME280;70452;39.386;-3.210;2024-01-16T02:55:02;94049.63;;;10.85;100.00
80988;BME280;70452;39.386;-3.210;2024-01-16T02:57:56;94047.88;;;10.95;100.00
80988;BME280;70452;39.386;-3.210;2024-01-16T03:00:28;94041.84;;;10.98;100.00
80988;BME280;70452;39.386;-3.210;2024-01-16T03:03:38;94059.00;;;10.98;100.00
80988;BME280;70452;39.386;-3.210;2024-01-16T03:06:24;94058.59;;;10.86;100.00
80988;BME280;70452;39.386;-3.210;2024-01-16T03:09:05;94054.72;;;10.92;100.00
80988;BME280;70452;39.386;-3.210;2024-01-16T03:11:37;94052.28;;;10.91;100.00
80988;BME280;70452;39.386;-3.210;2024-01-16T03:14:09;94053.28;;;11.00;100.00
80988;BME280;70452;39.386;-3.210;2024-01-16T03:16:41;94047.59;;;10.96;100.00
80988;BME280;70452;39.386;-3.210;2024-01-16T03:19:23;94037.81;;;10.95;100.00
80988;BME280;70452;39.386;-3.210;2024-01-16T03:22:14;94027.94;;;10.99;100.00
80988;BME280;70452;39.386;-3.210;2024-01-16T03:24:49;94017.88;;;10.95;100.00
80988;BME280;70452;39.386;-3.210;2024-01-16T03:27:51;94013.44;;;11.04;100.00
80988;BME280;70452;39.386;-3.210;2024-01-16T03:30:33;94009.72;;;10.95;100.00
80988;BME280;70452;39.386;-3.210;2024-01-16T03:35:57;94007.16;;;11.03;100.00
80988;BME280;70452;39.386;-3.210;2024-01-16T03:38:37;94007.50;;;10.97;100.00
80988;BME280;70452;39.386;-3.210;2024-01-16T03:41:26;94013.56;;;10.94;100.00
80988;BME280;70452;39.386;-3.210;2024-01-16T03:44:08;94014.75;;;10.82;100.00
80988;BME280;70452;39.386;-3.210;2024-01-16T03:46:53;94020.22;;;10.82;100.00
80988;BME280;70452;39.386;-3.210;2024-01-16T03:49:29;94004.06;;;10.86;100.00
80988;BME280;70452;39.386;-3.210;2024-01-16T03:52:05;94001.41;;;10.81;100.00
80988;BME280;70452;39.386;-3.210;2024-01-16T03:54:45;93999.25;;;10.78;100.00
80988;BME280;70452;39.386;-3.210;2024-01-16T03:57:30;93989.34;;;10.63;100.00
80988;BME280;70452;39.386;-3.210;2024-01-16T04:00:05;93991.19;;;10.67;100.00
80988;BME280;70452;39.386;-3.210;2024-01-16T04:02:41;93990.44;;;10.62;100.00
80988;BME280;70452;39.386;-3.210;2024-01-16T04:05:13;93986.84;;;10.66;100.00
80988;BME280;70452;39.386;-3.210;2024-01-16T04:07:56;93992.34;;;10.61;100.00
80988;BME280;70452;39.386;-3.210;2024-01-16T04:10:32;93997.75;;;10.66;100.00
80988;BME280;70452;39.386;-3.210;2024-01-16T04:13:09;93991.19;;;10.67;100.00
80988;BME280;70452;39.386;-3.210;2024-01-16T04:15:44;93992.72;;;10.79;100.00
80988;BME280;70452;39.386;-3.210;2024-01-16T04:18:24;94002.75;;;10.83;100.00
80988;BME280;70452;39.386;-3.210;2024-01-16T04:21:03;93992.31;;;10.91;100.00
80988;BME280;70452;39.386;-3.210;2024-01-16T04:23:52;93986.28;;;10.94;100.00
80988;BME280;70452;39.386;-3.210;2024-01-16T04:26:31;93992.38;;;10.85;100.00
80988;BME280;70452;39.386;-3.210;2024-01-16T04:29:05;93998.28;;;10.93;100.00
80988;BME280;70452;39.386;-3.210;2024-01-16T04:31:45;94002.03;;;10.97;100.00
80988;BME280;70452;39.386;-3.210;2024-01-16T04:34:28;94002.03;;;10.97;100.00
80988;BME280;70452;39.386;-3.210;2024-01-16T04:37:04;93997.88;;;11.04;100.00
80988;BME280;70452;39.386;-3.210;2024-01-16T04:39:44;94001.75;;;10.98;100.00
80988;BME280;70452;39.386;-3.210;2024-01-16T04:42:38;94000.16;;;10.97;100.00
80988;BME280;70452;39.386;-3.210;2024-01-16T04:45:09;93992.84;;;10.93;100.00
80988;BME280;70452;39.386;-3.210;2024-01-16T04:47:49;94001.53;;;10.95;100.00
80988;BME280;70452;39.386;-3.210;2024-01-16T04:50:30;93997.19;;;10.94;100.00
80988;BME280;70452;39.386;-3.210;2024-01-16T04:53:22;93994.00;;;10.86;100.00
80988;BME280;70452;39.386;-3.210;2024-01-16T04:55:57;93993.63;;;10.93;100.00
80988;BME280;70452;39.386;-3.210;2024-01-16T04:58:39;93999.75;;;10.85;100.00
80988;BME280;70452;39.386;-3.210;2024-01-16T05:01:12;94000.84;;;10.84;100.00
80988;BME280;70452;39.386;-3.210;2024-01-16T05:03:47;93997.25;;;10.88;100.00
80988;BME280;70452;39.386;-3.210;2024-01-16T05:06:25;93999.19;;;10.83;100.00
80988;BME280;70452;39.386;-3.210;2024-01-16T05:09:03;94006.06;;;10.80;100.00
80988;BME280;70452;39.386;-3.210;2024-01-16T05:11:45;93993.53;;;10.79;100.00
80988;BME280;70452;39.386;-3.210;2024-01-16T05:14:23;93993.22;;;10.81;100.00
80988;BME280;70452;39.386;-3.210;2024-01-16T05:16:57;93977.09;;;10.84;100.00
80988;BME280;70452;39.386;-3.210;2024-01-16T05:19:38;93984.59;;;10.74;100.00
80988;BME280;70452;39.386;-3.210;2024-01-16T05:22:30;93988.34;;;10.78;100.00
80988;BME280;70452;39.386;-3.210;2024-01-16T05:25:11;93995.66;;;10.82;100.00
80988;BME280;70452;39.386;-3.210;2024-01-16T05:27:49;93990.16;;;10.87;100.00
80988;BME280;70452;39.386;-3.210;2024-01-16T05:30:37;93983.72;;;10.78;100.00
80988;BME280;70452;39.386;-3.210;2024-01-16T05:33:32;93974.66;;;10.83;100.00
80988;BME280;70452;39.386;-3.210;2024-01-16T05:36:02;93969.75;;;10.85;100.00
80988;BME280;70452;39.386;-3.210;2024-01-16T05:38:36;93972.88;;;10.73;100.00
80988;BME280;70452;39.386;-3.210;2024-01-16T05:41:14;93971.78;;;10.74;100.00
80988;BME280;70452;39.386;-3.210;2024-01-16T05:43:52;93966.38;;;10.69;100.00
80988;BME280;70452;39.386;-3.210;2024-01-16T05:46:31;93958.47;;;10.67;100.00
80988;BME280;70452;39.386;-3.210;2024-01-16T05:49:02;93962.63;;;10.65;100.00
80988;BME280;70452;39.386;-3.210;2024-01-16T05:51:37;93967.66;;;10.77;100.00
80988;BME280;70452;39.386;-3.210;2024-01-16T05:54:28;93979.19;;;10.68;100.00
80988;BME280;70452;39.386;-3.210;2024-01-16T05:57:00;93979.16;;;10.74;100.00
80988;BME280;70452;39.386;-3.210;2024-01-16T05:59:32;93988.22;;;10.64;100.00
80988;BME280;70452;39.386;-3.210;2024-01-16T06:02:01;93981.34;;;10.72;100.00
80988;BME280;70452;39.386;-3.210;2024-01-16T06:04:38;93980.50;;;10.76;100.00
80988;BME280;70452;39.386;-3.210;2024-01-16T06:07:11;93987.66;;;10.67;100.00
80988;BME280;70452;39.386;-3.210;2024-01-16T06:10:03;93986.72;;;10.53;100.00
80988;BME280;70452;39.386;-3.210;2024-01-16T06:12:35;93990.44;;;10.62;100.00
80988;BME280;70452;39.386;-3.210;2024-01-16T06:15:10;93980.25;;;10.43;100.00
80988;BME280;70452;39.386;-3.210;2024-01-16T06:17:46;93982.66;;;10.50;100.00
80988;BME280;70452;39.386;-3.210;2024-01-16T06:20:22;93989.03;;;10.40;100.00
80988;BME280;70452;39.386;-3.210;2024-01-16T06:23:19;93989.03;;;10.40;100.00
80988;BME280;70452;39.386;-3.210;2024-01-16T06:26:02;93988.47;;;10.38;100.00
80988;BME280;70452;39.386;-3.210;2024-01-16T06:28:55;93982.75;;;10.40;100.00
80988;BME280;70452;39.386;-3.210;2024-01-16T06:34:57;93972.53;;;10.56;100.00
80988;BME280;70452;39.386;-3.210;2024-01-16T06:37:34;93973.56;;;10.60;100.00
80988;BME280;70452;39.386;-3.210;2024-01-16T06:40:12;93978.97;;;10.65;100.00
80988;BME280;70452;39.386;-3.210;2024-01-16T06:42:51;93973.91;;;10.77;100.00
80988;BME280;70452;39.386;-3.210;2024-01-16T06:45:29;93979.38;;;10.77;100.00
80988;BME280;70452;39.386;-3.210;2024-01-16T06:48:07;93979.38;;;10.77;100.00
80988;BME280;70452;39.386;-3.210;2024-01-16T06:50:45;93978.97;;;10.89;100.00
80988;BME280;70452;39.386;-3.210;2024-01-16T06:53:25;93976.59;;;10.82;100.00
80988;BME280;70452;39.386;-3.210;2024-01-16T06:55:54;93983.34;;;10.90;100.00
80988;BME280;70452;39.386;-3.210;2024-01-16T06:58:25;93981.34;;;10.72;100.00
80988;BME280;70452;39.386;-3.210;2024-01-16T07:00:59;93985.16;;;10.70;100.00
80988;BME280;70452;39.386;-3.210;2024-01-16T07:03:46;93986.41;;;10.83;100.00
80988;BME280;70452;39.386;-3.210;2024-01-16T07:06:24;94000.72;;;10.70;100.00
80988;BME280;70452;39.386;-3.210;2024-01-16T07:09:01;94007.22;;;10.98;100.00
80988;BME280;70452;39.386;-3.210;2024-01-16T07:11:43;94002.19;;;11.11;100.00
80988;BME280;70452;39.386;-3.210;2024-01-16T07:14:16;93998.72;;;11.24;100.00
80988;BME280;70452;39.386;-3.210;2024-01-16T07:16:46;93992.91;;;11.31;100.00
80988;BME280;70452;39.386;-3.210;2024-01-16T07:19:18;94002.38;;;11.38;100.00
80988;BME280;70452;39.386;-3.210;2024-01-16T07:21:59;94003.13;;;11.44;100.00
80988;BME280;70452;39.386;-3.210;2024-01-16T07:24:34;94014.84;;;11.44;100.00
80988;BME280;70452;39.386;-3.210;2024-01-16T07:27:03;94000.09;;;11.45;100.00
80988;BME280;70452;39.386;-3.210;2024-01-16T07:29:35;94001.63;;;11.52;100.00
80988;BME280;70452;39.386;-3.210;2024-01-16T07:32:07;93992.63;;;11.51;100.00
80988;BME280;70452;39.386;-3.210;2024-01-16T07:34:39;93999.81;;;11.47;100.00
80988;BME280;70452;39.386;-3.210;2024-01-16T07:37:17;94003.69;;;11.41;100.00
80988;BME280;70452;39.386;-3.210;2024-01-16T07:39:52;94005.31;;;11.42;100.00
80988;BME280;70452;39.386;-3.210;2024-01-16T07:42:24;94006.41;;;11.41;100.00
80988;BME280;70452;39.386;-3.210;2024-01-16T07:45:07;94004.50;;;11.41;100.00
80988;BME280;70452;39.386;-3.210;2024-01-16T07:47:38;94004.75;;;11.45;100.00
80988;BME280;70452;39.386;-3.210;2024-01-16T07:50:25;93995.16;;;11.48;100.00
80988;BME280;70452;39.386;-3.210;2024-01-16T07:53:01;93977.63;;;11.54;100.00
80988;BME280;70452;39.386;-3.210;2024-01-16T07:55:46;93997.16;;;11.61;100.00
80988;BME280;70452;39.386;-3.210;2024-01-16T07:58:28;93996.88;;;11.62;100.00
80988;BME280;70452;39.386;-3.210;2024-01-16T08:00:57;93995.59;;;11.74;100.00
80988;BME280;70452;39.386;-3.210;2024-01-16T08:03:27;93984.38;;;11.75;100.00
80988;BME280;70452;39.386;-3.210;2024-01-16T08:06:10;93986.03;;;11.76;100.00
80988;BME280;70452;39.386;-3.210;2024-01-16T08:09:03;93978.25;;;11.83;100.00
80988;BME280;70452;39.386;-3.210;2024-01-16T08:11:38;93985.34;;;11.85;100.00
80988;BME280;70452;39.386;-3.210;2024-01-16T08:14:12;93994.06;;;11.87;100.00
80988;BME280;70452;39.386;-3.210;2024-01-16T08:16:55;93990.16;;;11.93;100.00
80988;BME280;70452;39.386;-3.210;2024-01-16T08:19:34;93993.63;;;11.98;100.00
80988;BME280;70452;39.386;-3.210;2024-01-16T08:22:05;93994.22;;;11.95;100.00
80988;BME280;70452;39.386;-3.210;2024-01-16T08:24:56;94008.69;;;11.96;100.00
80988;BME280;70452;39.386;-3.210;2024-01-16T08:27:40;94016.59;;;11.97;100.00
80988;BME280;70452;39.386;-3.210;2024-01-16T08:30:20;94016.13;;;11.90;100.00
80988;BME280;70452;39.386;-3.210;2024-01-16T08:32:59;94008.19;;;11.94;100.00
80988;BME280;70452;39.386;-3.210;2024-01-16T08:35:25;94017.47;;;11.93;100.00
80988;BME280;70452;39.386;-3.210;2024-01-16T08:37:59;94010.41;;;11.92;100.00
80988;BME280;70452;39.386;-3.210;2024-01-16T08:40:36;94022.41;;;11.91;100.00
80988;BME280;70452;39.386;-3.210;2024-01-16T08:43:11;94008.69;;;11.96;100.00
80988;BME280;70452;39.386;-3.210;2024-01-16T08:45:46;94015.19;;;12.00;100.00
80988;BME280;70452;39.386;-3.210;2024-01-16T08:48:15;94025.50;;;12.03;100.00
80988;BME280;70452;39.386;-3.210;2024-01-16T08:50:48;94022.41;;;12.10;100.00
80988;BME280;70452;39.386;-3.210;2024-01-16T08:53:22;94013.41;;;12.09;100.00
80988;BME280;70452;39.386;-3.210;2024-01-16T08:55:54;94017.06;;;12.18;100.00
80988;BME280;70452;39.386;-3.210;2024-01-16T08:58:49;94014.56;;;12.22;100.00
80988;BME280;70452;39.386;-3.210;2024-01-16T09:01:19;94009.63;;;12.24;100.00
80988;BME280;70452;39.386;-3.210;2024-01-16T09:04:03;94018.63;;;12.25;100.00
80988;BME280;70452;39.386;-3.210;2024-01-16T09:06:47;94025.94;;;12.29;100.00
80988;BME280;70452;39.386;-3.210;2024-01-16T09:09:28;94040.63;;;12.33;100.00
80988;BME280;70452;39.386;-3.210;2024-01-16T09:12:06;94040.31;;;12.35;100.00
80988;BME280;70452;39.386;-3.210;2024-01-16T09:14:56;94037.28;;;12.36;100.00
80988;BME280;70452;39.386;-3.210;2024-01-16T09:17:36;94031.25;;;12.40;100.00
80988;BME280;70452;39.386;-3.210;2024-01-16T09:20:25;94034.06;;;12.34;100.00
80988;BME280;70452;39.386;-3.210;2024-01-16T09:22:59;94024.94;;;12.39;100.00
80988;BME280;70452;39.386;-3.210;2024-01-16T09:25:37;94009.28;;;12.45;100.00
80988;BME280;70452;39.386;-3.210;2024-01-16T09:28:05;94005.50;;;12.41;100.00
80988;BME280;70452;39.386;-3.210;2024-01-16T09:30:59;94014.66;;;12.50;100.00
80988;BME280;70452;39.386;-3.210;2024-01-16T09:33:39;94018.31;;;12.59;100.00
80988;BME280;70452;39.386;-3.210;2024-01-16T09:36:13;94006.69;;;12.67;100.00
80988;BME280;70452;39.386;-3.210;2024-01-16T09:39:04;94018.75;;;12.66;100.00
80988;BME280;70452;39.386;-3.210;2024-01-16T09:41:44;94003.97;;;12.67;100.00
80988;BME280;70452;39.386;-3.210;2024-01-16T09:44:16;94011.25;;;12.72;100.00
80988;BME280;70452;39.386;-3.210;2024-01-16T09:46:57;94017.56;;;12.86;100.00
80988;BME280;70452;39.386;-3.210;2024-01-16T09:49:32;94021.59;;;12.89;100.00
80988;BME280;70452;39.386;-3.210;2024-01-16T09:52:06;94027.91;;;12.89;100.00
80988;BME280;70452;39.386;-3.210;2024-01-16T09:54:35;94035.69;;;12.96;100.00
80988;BME280;70452;39.386;-3.210;2024-01-16T09:57:10;94051.41;;;13.04;100.00
80988;BME280;70452;39.386;-3.210;2024-01-16T09:59:48;94053.97;;;13.14;100.00
80988;BME280;70452;39.386;-3.210;2024-01-16T10:02:22;94041.09;;;13.15;100.00
80988;BME280;70452;39.386;-3.210;2024-01-16T10:05:04;94041.81;;;13.21;100.00
80988;BME280;70452;39.386;-3.210;2024-01-16T10:07:42;94045.75;;;13.14;100.00
80988;BME280;70452;39.386;-3.210;2024-01-16T10:10:19;94053.16;;;13.14;100.00
80988;BME280;70452;39.386;-3.210;2024-01-16T10:12:52;94049.31;;;13.15;100.00
80988;BME280;70452;39.386;-3.210;2024-01-16T10:15:25;94042.91;;;13.20;100.00
80988;BME280;70452;39.386;-3.210;2024-01-16T10:17:56;94049.00;;;13.30;100.00
80988;BME280;70452;39.386;-3.210;2024-01-16T10:20:40;94043.78;;;13.34;100.00
80988;BME280;70452;39.386;-3.210;2024-01-16T10:23:12;94057.47;;;13.34;100.00
80988;BME280;70452;39.386;-3.210;2024-01-16T10:26:05;94066.38;;;13.40;100.00
80988;BME280;70452;39.386;-3.210;2024-01-16T10:28:40;94065.78;;;13.43;100.00
80988;BME280;70452;39.386;-3.210;2024-01-16T10:31:21;94078.31;;;13.44;100.00
80988;BME280;70452;39.386;-3.210;2024-01-16T10:34:27;94071.84;;;13.54;100.00
80988;BME280;70452;39.386;-3.210;2024-01-16T10:37:05;94071.53;;;13.55;100.00
80988;BME280;70452;39.386;-3.210;2024-01-16T10:40:02;94066.66;;;13.66;100.00
80988;BME280;70452;39.386;-3.210;2024-01-16T10:42:36;94042.13;;;13.61;100.00
80988;BME280;70452;39.386;-3.210;2024-01-16T10:48:03;94053.16;;;13.69;100.00
80988;BME280;70452;39.386;-3.210;2024-01-16T10:50:49;94051.66;;;13.77;100.00
80988;BME280;70452;39.386;-3.210;2024-01-16T10:53:35;94050.22;;;13.80;100.00
80988;BME280;70452;39.386;-3.210;2024-01-16T10:56:26;94042.78;;;13.80;100.00
80988;BME280;70452;39.386;-3.210;2024-01-16T10:59:28;94040.06;;;13.80;100.00
80988;BME280;70452;39.386;-3.210;2024-01-16T11:02:05;94031.31;;;13.92;100.00
80988;BME280;70452;39.386;-3.210;2024-01-16T11:04:43;94031.84;;;13.94;100.00
80988;BME280;70452;39.386;-3.210;2024-01-16T11:07:21;94029.78;;;14.00;100.00
80988;BME280;70452;39.386;-3.210;2024-01-16T11:09:58;94021.94;;;14.07;100.00
80988;BME280;70452;39.386;-3.210;2024-01-16T11:12:33;94022.81;;;14.16;100.00
80988;BME280;70452;39.386;-3.210;2024-01-16T11:15:14;94022.69;;;14.21;100.00
80988;BME280;70452;39.386;-3.210;2024-01-16T11:18:04;94018.47;;;14.38;100.00
80988;BME280;70452;39.386;-3.210;2024-01-16T11:20:34;94008.88;;;14.49;100.00
80988;BME280;70452;39.386;-3.210;2024-01-16T11:23:18;93997.72;;;14.45;100.00
80988;BME280;70452;39.386;-3.210;2024-01-16T11:31:49;93973.38;;;14.67;100.00
80988;BME280;70452;39.386;-3.210;2024-01-16T11:37:34;93970.56;;;14.58;100.00
80988;BME280;70452;39.386;-3.210;2024-01-16T11:42:54;93944.53;;;14.47;100.00
80988;BME280;70452;39.386;-3.210;2024-01-16T11:48:17;93935.88;;;14.31;100.00
80988;BME280;70452;39.386;-3.210;2024-01-16T11:50:58;93934.13;;;14.35;100.00
80988;BME280;70452;39.386;-3.210;2024-01-16T11:53:48;93933.31;;;14.34;100.00
80988;BME280;70452;39.386;-3.210;2024-01-16T12:02:46;93924.78;;;14.36;100.00
80988;BME280;70452;39.386;-3.210;2024-01-16T12:05:21;93918.31;;;14.32;100.00
80988;BME280;70452;39.386;-3.210;2024-01-16T12:07:53;93916.53;;;14.27;100.00
80988;BME280;70452;39.386;-3.210;2024-01-16T12:10:25;93923.25;;;14.21;100.00
80988;BME280;70452;39.386;-3.210;2024-01-16T12:13:12;93911.97;;;14.22;100.00
80988;BME280;70452;39.386;-3.210;2024-01-16T12:16:07;93916.56;;;14.36;100.00
80988;BME280;70452;39.386;-3.210;2024-01-16T12:18:46;93903.22;;;14.43;100.00
80988;BME280;70452;39.386;-3.210;2024-01-16T12:21:24;93892.53;;;14.64;100.00
80988;BME280;70452;39.386;-3.210;2024-01-16T12:24:03;93882.94;;;14.84;100.00
80988;BME280;70452;39.386;-3.210;2024-01-16T12:26:35;93884.09;;;15.00;100.00
80988;BME280;70452;39.386;-3.210;2024-01-16T12:29:12;93871.88;;;15.15;100.00
80988;BME280;70452;39.386;-3.210;2024-01-16T12:32:32;93866.25;;;15.38;100.00
80988;BME280;70452;39.386;-3.210;2024-01-16T12:34:53;93866.94;;;15.70;100.00
80988;BME280;70452;39.386;-3.210;2024-01-16T12:37:48;93869.38;;;15.89;100.00
80988;BME280;70452;39.386;-3.210;2024-01-16T12:40:17;93857.91;;;15.87;100.00
80988;BME280;70452;39.386;-3.210;2024-01-16T12:42:55;93857.22;;;15.99;100.00
80988;BME280;70452;39.386;-3.210;2024-01-16T12:45:45;93855.13;;;16.04;100.00
80988;BME280;70452;39.386;-3.210;2024-01-16T12:51:12;93844.13;;;16.13;100.00
80988;BME280;70452;39.386;-3.210;2024-01-16T12:53:43;93840.06;;;16.10;100.00
80988;BME280;70452;39.386;-3.210;2024-01-16T12:56:23;93830.84;;;16.24;100.00
80988;BME280;70452;39.386;-3.210;2024-01-16T12:58:59;93827.94;;;16.20;100.00
80988;BME280;70452;39.386;-3.210;2024-01-16T13:01:45;93817.47;;;16.05;100.00
80988;BME280;70452;39.386;-3.210;2024-01-16T13:04:25;93814.22;;;16.11;100.00
80988;BME280;70452;39.386;-3.210;2024-01-16T13:07:03;93814.38;;;16.06;100.00
80988;BME280;70452;39.386;-3.210;2024-01-16T13:09:54;93810.03;;;15.97;100.00
80988;BME280;70452;39.386;-3.210;2024-01-16T13:12:38;93804.22;;;15.98;100.00
80988;BME280;70452;39.386;-3.210;2024-01-16T13:15:20;93795.50;;;15.96;100.00
80988;BME280;70452;39.386;-3.210;2024-01-16T13:18:04;93791.94;;;16.04;100.00
80988;BME280;70452;39.386;-3.210;2024-01-16T13:20:49;93792.41;;;16.06;100.00
80988;BME280;70452;39.386;-3.210;2024-01-16T13:23:30;93783.50;;;16.09;100.00
80988;BME280;70452;39.386;-3.210;2024-01-16T13:26:04;93771.69;;;16.18;100.00
80988;BME280;70452;39.386;-3.210;2024-01-16T13:28:44;93755.47;;;16.25;100.00
80988;BME280;70452;39.386;-3.210;2024-01-16T13:31:17;93757.09;;;16.26;100.00
80988;BME280;70452;39.386;-3.210;2024-01-16T13:33:48;93743.44;;;16.38;100.00
80988;BME280;70452;39.386;-3.210;2024-01-16T13:36:44;93732.13;;;16.40;100.00
80988;BME280;70452;39.386;-3.210;2024-01-16T13:39:33;93726.84;;;16.26;100.00
80988;BME280;70452;39.386;-3.210;2024-01-16T13:42:24;93729.31;;;16.19;100.00
80988;BME280;70452;39.386;-3.210;2024-01-16T13:44:59;93727.38;;;16.10;100.00
80988;BME280;70452;39.386;-3.210;2024-01-16T13:47:33;93733.13;;;15.88;100.00
80988;BME280;70452;39.386;-3.210;2024-01-16T13:50:15;93735.69;;;15.93;100.00
80988;BME280;70452;39.386;-3.210;2024-01-16T13:52:44;93742.66;;;15.90;100.00
80988;BME280;70452;39.386;-3.210;2024-01-16T13:55:16;93747.50;;;15.93;100.00
80988;BME280;70452;39.386;-3.210;2024-01-16T13:57:57;93749.44;;;15.93;100.00
80988;BME280;70452;39.386;-3.210;2024-01-16T14:00:31;93742.38;;;15.48;100.00
80988;BME280;70452;39.386;-3.210;2024-01-16T14:03:16;93734.13;;;14.12;100.00
80988;BME280;70452;39.386;-3.210;2024-01-16T14:06:00;93724.97;;;13.54;100.00
80988;BME280;70452;39.386;-3.210;2024-01-16T14:08:55;93704.03;;;13.49;100.00
80988;BME280;70452;39.386;-3.210;2024-01-16T14:11:36;93704.63;;;13.38;92.99
80988;BME280;70452;39.386;-3.210;2024-01-16T14:14:22;93711.78;;;13.56;92.13
80988;BME280;70452;39.386;-3.210;2024-01-16T14:17:21;93699.69;;;13.48;91.64
80988;BME280;70452;39.386;-3.210;2024-01-16T14:19:47;93717.22;;;13.47;91.56